sensor_id;sensor_type;location;lat;lon;timestamp;P1;durP1;ratioP1;P2;durP2;ratioP2
39434;SDS011;66825;51.880;-0.518;2023-07-13T00:01:44;1.00;;;0.70;;
39434;SDS011;66825;51.880;-0.518;2023-07-13T00:04:11;1.10;;;0.80;;
39434;SDS011;66825;51.880;-0.518;2023-07-13T00:06:39;1.00;;;0.80;;
39434;SDS011;66825;51.880;-0.518;2023-07-13T00:09:05;1.17;;;0.70;;
39434;SDS011;66825;51.880;-0.518;2023-07-13T00:11:31;0.80;;;0.60;;
39434;SDS011;66825;51.880;-0.518;2023-07-13T00:13:57;0.90;;;0.70;;
39434;SDS011;66825;51.880;-0.518;2023-07-13T00:16:22;1.67;;;0.90;;
39434;SDS011;66825;51.880;-0.518;2023-07-13T00:18:48;1.08;;;0.70;;
39434;SDS011;66825;51.880;-0.518;2023-07-13T00:21:13;1.05;;;0.80;;
39434;SDS011;66825;51.880;-0.518;2023-07-13T00:23:40;0.90;;;0.75;;
39434;SDS011;66825;51.880;-0.518;2023-07-13T00:26:07;1.77;;;0.80;;
39434;SDS011;66825;51.880;-0.518;2023-07-13T00:28:34;2.20;;;0.80;;
39434;SDS011;66825;51.880;-0.518;2023-07-13T00:31:00;1.17;;;0.70;;
39434;SDS011;66825;51.880;-0.518;2023-07-13T00:33:27;1.15;;;0.80;;
39434;SDS011;66825;51.880;-0.518;2023-07-13T00:35:53;1.10;;;0.70;;
39434;SDS011;66825;51.880;-0.518;2023-07-13T00:38:20;2.20;;;0.80;;
39434;SDS011;66825;51.880;-0.518;2023-07-13T00:40:46;1.30;;;0.77;;
39434;SDS011;66825;51.880;-0.518;2023-07-13T00:43:13;0.80;;;0.60;;
39434;SDS011;66825;51.880;-0.518;2023-07-13T00:48:09;1.20;;;0.70;;
39434;SDS011;66825;51.880;-0.518;2023-07-13T00:50:36;1.23;;;0.80;;
39434;SDS011;66825;51.880;-0.518;2023-07-13T00:53:03;0.90;;;0.60;;
39434;SDS011;66825;51.880;-0.518;2023-07-13T00:55:29;0.85;;;0.70;;
39434;SDS011;66825;51.880;-0.518;2023-07-13T00:57:54;1.30;;;0.85;;
39434;SDS011;66825;51.880;-0.518;2023-07-13T01:00:20;1.05;;;0.80;;
39434;SDS011;66825;51.880;-0.518;2023-07-13T01:02:48;1.27;;;0.80;;
39434;SDS011;66825;51.880;-0.518;2023-07-13T01:05:15;0.85;;;0.80;;
39434;SDS011;66825;51.880;-0.518;2023-07-13T01:07:43;1.33;;;0.80;;
39434;SDS011;66825;51.880;-0.518;2023-07-13T01:10:10;1.00;;;0.70;;
39434;SDS011;66825;51.880;-0.518;2023-07-13T01:12:37;1.17;;;0.70;;
39434;SDS011;66825;51.880;-0.518;2023-07-13T01:15:02;1.10;;;0.70;;
39434;SDS011;66825;51.880;-0.518;2023-07-13T01:17:29;1.10;;;0.80;;
39434;SDS011;66825;51.880;-0.518;2023-07-13T01:19:56;1.27;;;0.90;;
39434;SDS011;66825;51.880;-0.518;2023-07-13T01:22:22;0.80;;;0.63;;
39434;SDS011;66825;51.880;-0.518;2023-07-13T01:24:51;1.08;;;0.77;;
39434;SDS011;66825;51.880;-0.518;2023-07-13T01:27:19;1.20;;;0.68;;
39434;SDS011;66825;51.880;-0.518;2023-07-13T01:29:48;0.98;;;0.60;;
39434;SDS011;66825;51.880;-0.518;2023-07-13T01:32:16;1.40;;;0.98;;
39434;SDS011;66825;51.880;-0.518;2023-07-13T01:34:48;1.13;;;0.80;;
39434;SDS011;66825;51.880;-0.518;2023-07-13T01:37:13;1.00;;;0.70;;
39434;SDS011;66825;51.880;-0.518;2023-07-13T01:39:39;1.00;;;0.80;;
39434;SDS011;66825;51.880;-0.518;2023-07-13T01:42:05;1.38;;;0.70;;
39434;SDS011;66825;51.880;-0.518;2023-07-13T01:44:31;1.35;;;0.85;;
39434;SDS011;66825;51.880;-0.518;2023-07-13T01:46:57;1.50;;;0.90;;
39434;SDS011;66825;51.880;-0.518;2023-07-13T01:49:22;1.70;;;0.82;;
39434;SDS011;66825;51.880;-0.518;2023-07-13T01:51:48;0.80;;;0.65;;
39434;SDS011;66825;51.880;-0.518;2023-07-13T01:54:13;1.15;;;0.90;;
39434;SDS011;66825;51.880;-0.518;2023-07-13T01:56:38;0.93;;;0.68;;
39434;SDS011;66825;51.880;-0.518;2023-07-13T01:59:04;1.20;;;0.70;;
39434;SDS011;66825;51.880;-0.518;2023-07-13T02:01:30;1.25;;;0.70;;
39434;SDS011;66825;51.880;-0.518;2023-07-13T02:03:56;1.10;;;0.82;;
39434;SDS011;66825;51.880;-0.518;2023-07-13T02:06:21;1.67;;;0.70;;
39434;SDS011;66825;51.880;-0.518;2023-07-13T02:08:47;1.33;;;0.93;;
39434;SDS011;66825;51.880;-0.518;2023-07-13T02:11:12;1.33;;;0.80;;
39434;SDS011;66825;51.880;-0.518;2023-07-13T02:13:38;1.33;;;0.90;;
39434;SDS011;66825;51.880;-0.518;2023-07-13T02:16:03;1.00;;;0.80;;
39434;SDS011;66825;51.880;-0.518;2023-07-13T02:18:29;1.30;;;0.90;;
39434;SDS011;66825;51.880;-0.518;2023-07-13T02:20:54;1.40;;;0.90;;
39434;SDS011;66825;51.880;-0.518;2023-07-13T02:23:21;1.70;;;0.80;;
39434;SDS011;66825;51.880;-0.518;2023-07-13T02:25:47;1.60;;;0.90;;
39434;SDS011;66825;51.880;-0.518;2023-07-13T02:28:12;1.25;;;0.85;;
39434;SDS011;66825;51.880;-0.518;2023-07-13T02:30:38;1.50;;;0.90;;
39434;SDS011;66825;51.880;-0.518;2023-07-13T02:33:04;1.42;;;0.80;;
39434;SDS011;66825;51.880;-0.518;2023-07-13T02:35:29;1.08;;;0.73;;
39434;SDS011;66825;51.880;-0.518;2023-07-13T02:37:55;1.30;;;0.90;;
39434;SDS011;66825;51.880;-0.518;2023-07-13T02:40:21;1.30;;;0.90;;
39434;SDS011;66825;51.880;-0.518;2023-07-13T02:42:46;1.38;;;0.82;;
39434;SDS011;66825;51.880;-0.518;2023-07-13T02:45:12;0.90;;;0.60;;
39434;SDS011;66825;51.880;-0.518;2023-07-13T02:47:39;1.40;;;0.93;;
39434;SDS011;66825;51.880;-0.518;2023-07-13T02:50:06;1.40;;;0.90;;
39434;SDS011;66825;51.880;-0.518;2023-07-13T02:52:32;1.13;;;0.90;;
39434;SDS011;66825;51.880;-0.518;2023-07-13T02:54:57;2.03;;;0.88;;
39434;SDS011;66825;51.880;-0.518;2023-07-13T02:57:23;1.42;;;0.90;;
39434;SDS011;66825;51.880;-0.518;2023-07-13T02:59:48;1.15;;;0.80;;
39434;SDS011;66825;51.880;-0.518;2023-07-13T03:02:15;1.20;;;0.90;;
39434;SDS011;66825;51.880;-0.518;2023-07-13T03:04:40;1.42;;;0.93;;
39434;SDS011;66825;51.880;-0.518;2023-07-13T03:07:06;1.75;;;0.95;;
39434;SDS011;66825;51.880;-0.518;2023-07-13T03:09:32;1.27;;;0.75;;
39434;SDS011;66825;51.880;-0.518;2023-07-13T03:11:58;1.27;;;0.77;;
39434;SDS011;66825;51.880;-0.518;2023-07-13T03:14:24;1.65;;;0.80;;
39434;SDS011;66825;51.880;-0.518;2023-07-13T03:16:50;1.08;;;0.85;;
39434;SDS011;66825;51.880;-0.518;2023-07-13T03:19:17;1.45;;;0.98;;
39434;SDS011;66825;51.880;-0.518;2023-07-13T03:21:43;1.30;;;0.90;;
39434;SDS011;66825;51.880;-0.518;2023-07-13T03:24:08;1.30;;;0.90;;
39434;SDS011;66825;51.880;-0.518;2023-07-13T03:26:34;1.58;;;0.90;;
39434;SDS011;66825;51.880;-0.518;2023-07-13T03:29:00;1.05;;;0.82;;
39434;SDS011;66825;51.880;-0.518;2023-07-13T03:31:27;0.98;;;0.80;;
39434;SDS011;66825;51.880;-0.518;2023-07-13T03:33:55;1.13;;;0.87;;
39434;SDS011;66825;51.880;-0.518;2023-07-13T03:36:24;1.33;;;0.80;;
39434;SDS011;66825;51.880;-0.518;2023-07-13T03:38:53;1.00;;;0.73;;
39434;SDS011;66825;51.880;-0.518;2023-07-13T03:41:20;1.05;;;0.80;;
39434;SDS011;66825;51.880;-0.518;2023-07-13T03:43:46;1.98;;;0.80;;
39434;SDS011;66825;51.880;-0.518;2023-07-13T03:46:13;1.20;;;0.80;;
39434;SDS011;66825;51.880;-0.518;2023-07-13T03:48:39;1.25;;;0.90;;
39434;SDS011;66825;51.880;-0.518;2023-07-13T03:51:06;1.00;;;0.80;;
39434;SDS011;66825;51.880;-0.518;2023-07-13T03:53:31;1.08;;;0.82;;
39434;SDS011;66825;51.880;-0.518;2023-07-13T03:55:57;1.02;;;0.80;;
39434;SDS011;66825;51.880;-0.518;2023-07-13T03:58:24;1.17;;;0.90;;
39434;SDS011;66825;51.880;-0.518;2023-07-13T04:00:49;1.42;;;0.85;;
39434;SDS011;66825;51.880;-0.518;2023-07-13T04:03:15;1.15;;;0.90;;
39434;SDS011;66825;51.880;-0.518;2023-07-13T04:05:41;1.50;;;1.10;;
39434;SDS011;66825;51.880;-0.518;2023-07-13T04:08:07;1.15;;;0.93;;
39434;SDS011;66825;51.880;-0.518;2023-07-13T04:10:33;1.23;;;0.90;;
39434;SDS011;66825;51.880;-0.518;2023-07-13T04:12:58;1.70;;;1.00;;
39434;SDS011;66825;51.880;-0.518;2023-07-13T04:15:23;1.17;;;0.75;;
39434;SDS011;66825;51.880;-0.518;2023-07-13T04:17:49;1.23;;;0.90;;
39434;SDS011;66825;51.880;-0.518;2023-07-13T04:20:14;1.02;;;0.80;;
39434;SDS011;66825;51.880;-0.518;2023-07-13T04:22:40;1.30;;;0.82;;
39434;SDS011;66825;51.880;-0.518;2023-07-13T04:25:06;0.98;;;0.80;;
39434;SDS011;66825;51.880;-0.518;2023-07-13T04:27:32;1.30;;;0.80;;
39434;SDS011;66825;51.880;-0.518;2023-07-13T04:29:57;1.30;;;0.90;;
39434;SDS011;66825;51.880;-0.518;2023-07-13T04:32:22;1.25;;;0.80;;
39434;SDS011;66825;51.880;-0.518;2023-07-13T04:34:48;1.08;;;0.80;;
39434;SDS011;66825;51.880;-0.518;2023-07-13T04:37:18;0.82;;;0.68;;
39434;SDS011;66825;51.880;-0.518;2023-07-13T04:39:45;1.20;;;0.80;;
39434;SDS011;66825;51.880;-0.518;2023-07-13T04:42:10;1.15;;;0.90;;
39434;SDS011;66825;51.880;-0.518;2023-07-13T04:44:36;1.00;;;0.85;;
39434;SDS011;66825;51.880;-0.518;2023-07-13T04:47:01;1.73;;;0.90;;
39434;SDS011;66825;51.880;-0.518;2023-07-13T04:49:26;0.90;;;0.70;;
39434;SDS011;66825;51.880;-0.518;2023-07-13T04:51:52;1.08;;;0.80;;
39434;SDS011;66825;51.880;-0.518;2023-07-13T04:54:17;0.98;;;0.80;;
39434;SDS011;66825;51.880;-0.518;2023-07-13T04:56:43;1.15;;;0.80;;
39434;SDS011;66825;51.880;-0.518;2023-07-13T04:59:08;0.90;;;0.60;;
39434;SDS011;66825;51.880;-0.518;2023-07-13T05:01:33;0.95;;;0.70;;
39434;SDS011;66825;51.880;-0.518;2023-07-13T05:03:59;1.20;;;0.85;;
39434;SDS011;66825;51.880;-0.518;2023-07-13T05:06:25;1.98;;;0.80;;
39434;SDS011;66825;51.880;-0.518;2023-07-13T05:08:50;0.82;;;0.80;;
39434;SDS011;66825;51.880;-0.518;2023-07-13T05:11:17;0.93;;;0.63;;
39434;SDS011;66825;51.880;-0.518;2023-07-13T05:13:43;1.02;;;0.80;;
39434;SDS011;66825;51.880;-0.518;2023-07-13T05:16:08;1.25;;;0.88;;
39434;SDS011;66825;51.880;-0.518;2023-07-13T05:18:34;1.20;;;0.95;;
39434;SDS011;66825;51.880;-0.518;2023-07-13T05:21:03;1.00;;;0.70;;
39434;SDS011;66825;51.880;-0.518;2023-07-13T05:23:31;0.90;;;0.70;;
39434;SDS011;66825;51.880;-0.518;2023-07-13T05:25:58;1.27;;;0.82;;
39434;SDS011;66825;51.880;-0.518;2023-07-13T05:28:24;0.90;;;0.75;;
39434;SDS011;66825;51.880;-0.518;2023-07-13T05:30:50;1.00;;;0.80;;
39434;SDS011;66825;51.880;-0.518;2023-07-13T05:33:17;1.10;;;0.80;;
39434;SDS011;66825;51.880;-0.518;2023-07-13T05:35:42;1.27;;;0.93;;
39434;SDS011;66825;51.880;-0.518;2023-07-13T05:38:07;1.10;;;0.70;;
39434;SDS011;66825;51.880;-0.518;2023-07-13T05:40:33;1.27;;;0.77;;
39434;SDS011;66825;51.880;-0.518;2023-07-13T05:42:58;0.98;;;0.75;;
39434;SDS011;66825;51.880;-0.518;2023-07-13T05:45:24;1.38;;;0.82;;
39434;SDS011;66825;51.880;-0.518;2023-07-13T05:47:51;0.90;;;0.70;;
39434;SDS011;66825;51.880;-0.518;2023-07-13T05:50:16;0.90;;;0.70;;
39434;SDS011;66825;51.880;-0.518;2023-07-13T05:52:42;1.30;;;0.95;;
39434;SDS011;66825;51.880;-0.518;2023-07-13T05:55:07;1.15;;;0.80;;
39434;SDS011;66825;51.880;-0.518;2023-07-13T05:57:33;0.80;;;0.70;;
39434;SDS011;66825;51.880;-0.518;2023-07-13T05:59:58;0.80;;;0.70;;
39434;SDS011;66825;51.880;-0.518;2023-07-13T06:02:24;1.10;;;0.80;;
39434;SDS011;66825;51.880;-0.518;2023-07-13T06:04:50;1.15;;;0.65;;
39434;SDS011;66825;51.880;-0.518;2023-07-13T06:07:16;1.00;;;0.70;;
39434;SDS011;66825;51.880;-0.518;2023-07-13T06:09:41;1.33;;;0.80;;
39434;SDS011;66825;51.880;-0.518;2023-07-13T06:12:07;1.00;;;0.80;;
39434;SDS011;66825;51.880;-0.518;2023-07-13T06:14:32;1.08;;;0.73;;
39434;SDS011;66825;51.880;-0.518;2023-07-13T06:16:58;1.10;;;0.90;;
39434;SDS011;66825;51.880;-0.518;2023-07-13T06:19:23;0.95;;;0.75;;
39434;SDS011;66825;51.880;-0.518;2023-07-13T06:21:49;0.90;;;0.60;;
39434;SDS011;66825;51.880;-0.518;2023-07-13T06:24:14;1.25;;;0.80;;
39434;SDS011;66825;51.880;-0.518;2023-07-13T06:26:39;1.05;;;0.70;;
39434;SDS011;66825;51.880;-0.518;2023-07-13T06:29:05;1.27;;;0.80;;
39434;SDS011;66825;51.880;-0.518;2023-07-13T06:31:30;1.00;;;0.88;;
39434;SDS011;66825;51.880;-0.518;2023-07-13T06:33:56;0.90;;;0.70;;
39434;SDS011;66825;51.880;-0.518;2023-07-13T06:36:21;1.38;;;0.80;;
39434;SDS011;66825;51.880;-0.518;2023-07-13T06:38:47;1.13;;;0.90;;
39434;SDS011;66825;51.880;-0.518;2023-07-13T06:41:12;1.08;;;0.73;;
39434;SDS011;66825;51.880;-0.518;2023-07-13T06:43:38;1.05;;;0.70;;
39434;SDS011;66825;51.880;-0.518;2023-07-13T06:46:03;0.93;;;0.70;;
39434;SDS011;66825;51.880;-0.518;2023-07-13T06:48:29;1.20;;;0.80;;
39434;SDS011;66825;51.880;-0.518;2023-07-13T06:50:55;1.30;;;0.80;;
39434;SDS011;66825;51.880;-0.518;2023-07-13T06:53:21;0.90;;;0.80;;
39434;SDS011;66825;51.880;-0.518;2023-07-13T06:55:47;1.02;;;0.68;;
39434;SDS011;66825;51.880;-0.518;2023-07-13T06:58:14;1.05;;;0.73;;
39434;SDS011;66825;51.880;-0.518;2023-07-13T07:00:41;1.05;;;0.70;;
39434;SDS011;66825;51.880;-0.518;2023-07-13T07:03:06;0.82;;;0.77;;
39434;SDS011;66825;51.880;-0.518;2023-07-13T07:05:32;1.30;;;0.80;;
39434;SDS011;66825;51.880;-0.518;2023-07-13T07:07:58;0.88;;;0.68;;
39434;SDS011;66825;51.880;-0.518;2023-07-13T07:10:23;0.90;;;0.70;;
39434;SDS011;66825;51.880;-0.518;2023-07-13T07:12:49;0.82;;;0.70;;
39434;SDS011;66825;51.880;-0.518;2023-07-13T07:15:14;1.25;;;0.80;;
39434;SDS011;66825;51.880;-0.518;2023-07-13T07:17:40;0.90;;;0.70;;
39434;SDS011;66825;51.880;-0.518;2023-07-13T07:20:05;0.75;;;0.52;;
39434;SDS011;66825;51.880;-0.518;2023-07-13T07:22:31;0.93;;;0.70;;
39434;SDS011;66825;51.880;-0.518;2023-07-13T07:24:57;1.08;;;0.85;;
39434;SDS011;66825;51.880;-0.518;2023-07-13T07:27:23;1.17;;;0.80;;
39434;SDS011;66825;51.880;-0.518;2023-07-13T07:29:49;1.33;;;0.90;;
39434;SDS011;66825;51.880;-0.518;2023-07-13T07:32:15;1.13;;;0.90;;
39434;SDS011;66825;51.880;-0.518;2023-07-13T07:34:40;1.95;;;0.80;;
39434;SDS011;66825;51.880;-0.518;2023-07-13T07:37:06;1.70;;;0.88;;
39434;SDS011;66825;51.880;-0.518;2023-07-13T07:39:31;1.45;;;0.80;;
39434;SDS011;66825;51.880;-0.518;2023-07-13T07:41:57;1.30;;;0.90;;
39434;SDS011;66825;51.880;-0.518;2023-07-13T07:44:22;1.10;;;0.80;;
39434;SDS011;66825;51.880;-0.518;2023-07-13T07:46:48;0.90;;;0.77;;
39434;SDS011;66825;51.880;-0.518;2023-07-13T07:49:14;1.40;;;0.80;;
39434;SDS011;66825;51.880;-0.518;2023-07-13T07:51:40;1.33;;;0.80;;
39434;SDS011;66825;51.880;-0.518;2023-07-13T07:54:05;1.88;;;1.00;;
39434;SDS011;66825;51.880;-0.518;2023-07-13T07:56:31;1.10;;;0.82;;
39434;SDS011;66825;51.880;-0.518;2023-07-13T07:58:57;2.15;;;1.10;;
39434;SDS011;66825;51.880;-0.518;2023-07-13T08:01:23;2.70;;;1.30;;
39434;SDS011;66825;51.880;-0.518;2023-07-13T08:03:48;2.67;;;1.25;;
39434;SDS011;66825;51.880;-0.518;2023-07-13T08:06:14;2.28;;;1.15;;
39434;SDS011;66825;51.880;-0.518;2023-07-13T08:08:40;2.10;;;1.20;;
39434;SDS011;66825;51.880;-0.518;2023-07-13T08:11:06;1.15;;;0.77;;
39434;SDS011;66825;51.880;-0.518;2023-07-13T08:13:33;2.40;;;1.10;;
39434;SDS011;66825;51.880;-0.518;2023-07-13T08:15:59;3.03;;;1.50;;
39434;SDS011;66825;51.880;-0.518;2023-07-13T08:18:24;2.95;;;1.45;;
39434;SDS011;66825;51.880;-0.518;2023-07-13T08:20:50;4.38;;;1.67;;
39434;SDS011;66825;51.880;-0.518;2023-07-13T08:23:16;2.90;;;1.30;;
39434;SDS011;66825;51.880;-0.518;2023-07-13T08:25:42;2.83;;;1.30;;
39434;SDS011;66825;51.880;-0.518;2023-07-13T08:28:07;1.98;;;1.20;;
39434;SDS011;66825;51.880;-0.518;2023-07-13T08:30:33;2.03;;;1.25;;
39434;SDS011;66825;51.880;-0.518;2023-07-13T08:32:58;2.78;;;1.35;;
39434;SDS011;66825;51.880;-0.518;2023-07-13T08:35:24;2.60;;;1.38;;
39434;SDS011;66825;51.880;-0.518;2023-07-13T08:37:51;1.58;;;1.10;;
39434;SDS011;66825;51.880;-0.518;2023-07-13T08:40:16;2.78;;;1.48;;
39434;SDS011;66825;51.880;-0.518;2023-07-13T08:42:45;1.92;;;1.23;;
39434;SDS011;66825;51.880;-0.518;2023-07-13T08:45:22;3.08;;;1.20;;
39434;SDS011;66825;51.880;-0.518;2023-07-13T08:47:53;3.05;;;1.30;;
39434;SDS011;66825;51.880;-0.518;2023-07-13T08:50:26;2.75;;;1.20;;
39434;SDS011;66825;51.880;-0.518;2023-07-13T08:55:22;2.15;;;1.20;;
39434;SDS011;66825;51.880;-0.518;2023-07-13T08:58:02;1.97;;;1.30;;
39434;SDS011;66825;51.880;-0.518;2023-07-13T09:00:45;2.72;;;1.70;;
39434;SDS011;66825;51.880;-0.518;2023-07-13T09:03:23;3.08;;;1.58;;
39434;SDS011;66825;51.880;-0.518;2023-07-13T09:05:57;3.75;;;2.03;;
39434;SDS011;66825;51.880;-0.518;2023-07-13T09:11:13;6.03;;;2.50;;
39434;SDS011;66825;51.880;-0.518;2023-07-13T09:17:16;4.57;;;1.90;;
39434;SDS011;66825;51.880;-0.518;2023-07-13T09:19:43;9.10;;;3.00;;
39434;SDS011;66825;51.880;-0.518;2023-07-13T09:22:15;3.85;;;2.15;;
39434;SDS011;66825;51.880;-0.518;2023-07-13T09:27:17;4.10;;;1.95;;
39434;SDS011;66825;51.880;-0.518;2023-07-13T09:29:48;5.95;;;2.40;;
39434;SDS011;66825;51.880;-0.518;2023-07-13T09:32:20;5.93;;;2.60;;
39434;SDS011;66825;51.880;-0.518;2023-07-13T09:34:50;7.28;;;2.92;;
39434;SDS011;66825;51.880;-0.518;2023-07-13T09:37:23;5.22;;;2.65;;
39434;SDS011;66825;51.880;-0.518;2023-07-13T09:39:53;6.85;;;2.60;;
39434;SDS011;66825;51.880;-0.518;2023-07-13T09:42:21;3.90;;;2.05;;
39434;SDS011;66825;51.880;-0.518;2023-07-13T09:47:25;3.47;;;2.10;;
39434;SDS011;66825;51.880;-0.518;2023-07-13T09:50:03;5.47;;;2.50;;
39434;SDS011;66825;51.880;-0.518;2023-07-13T09:52:40;3.97;;;2.27;;
39434;SDS011;66825;51.880;-0.518;2023-07-13T09:55:29;3.58;;;2.20;;
39434;SDS011;66825;51.880;-0.518;2023-07-13T09:57:57;2.83;;;1.77;;
39434;SDS011;66825;51.880;-0.518;2023-07-13T10:00:24;3.83;;;2.17;;
39434;SDS011;66825;51.880;-0.518;2023-07-13T10:02:59;5.63;;;2.08;;
39434;SDS011;66825;51.880;-0.518;2023-07-13T10:05:26;6.90;;;2.40;;
39434;SDS011;66825;51.880;-0.518;2023-07-13T10:07:53;6.85;;;2.13;;
39434;SDS011;66825;51.880;-0.518;2023-07-13T10:10:21;7.25;;;2.38;;
39434;SDS011;66825;51.880;-0.518;2023-07-13T10:12:48;5.45;;;2.20;;
39434;SDS011;66825;51.880;-0.518;2023-07-13T10:15:19;5.90;;;2.20;;
39434;SDS011;66825;51.880;-0.518;2023-07-13T10:17:47;5.10;;;2.03;;
39434;SDS011;66825;51.880;-0.518;2023-07-13T10:20:14;5.28;;;2.47;;
39434;SDS011;66825;51.880;-0.518;2023-07-13T10:22:54;5.00;;;2.58;;
39434;SDS011;66825;51.880;-0.518;2023-07-13T10:25:26;7.72;;;2.42;;
39434;SDS011;66825;51.880;-0.518;2023-07-13T10:27:58;5.90;;;2.13;;
39434;SDS011;66825;51.880;-0.518;2023-07-13T10:30:32;5.72;;;2.17;;
39434;SDS011;66825;51.880;-0.518;2023-07-13T10:33:03;3.20;;;2.03;;
39434;SDS011;66825;51.880;-0.518;2023-07-13T10:35:36;5.05;;;2.60;;
39434;SDS011;66825;51.880;-0.518;2023-07-13T10:38:05;6.40;;;2.00;;
39434;SDS011;66825;51.880;-0.518;2023-07-13T10:40:35;15.90;;;2.20;;
39434;SDS011;66825;51.880;-0.518;2023-07-13T10:43:06;6.63;;;1.88;;
39434;SDS011;66825;51.880;-0.518;2023-07-13T10:45:42;3.78;;;1.42;;
39434;SDS011;66825;51.880;-0.518;2023-07-13T10:48:12;7.15;;;1.50;;
39434;SDS011;66825;51.880;-0.518;2023-07-13T10:50:40;2.95;;;1.10;;
39434;SDS011;66825;51.880;-0.518;2023-07-13T10:56:19;3.65;;;1.42;;
39434;SDS011;66825;51.880;-0.518;2023-07-13T10:59:02;3.85;;;1.70;;
39434;SDS011;66825;51.880;-0.518;2023-07-13T11:01:39;3.22;;;1.40;;
39434;SDS011;66825;51.880;-0.518;2023-07-13T11:04:08;4.97;;;1.40;;
39434;SDS011;66825;51.880;-0.518;2023-07-13T11:06:38;3.00;;;1.38;;
39434;SDS011;66825;51.880;-0.518;2023-07-13T11:09:20;1.90;;;1.30;;
39434;SDS011;66825;51.880;-0.518;2023-07-13T11:12:02;2.88;;;1.30;;
39434;SDS011;66825;51.880;-0.518;2023-07-13T11:23:20;3.13;;;1.08;;
39434;SDS011;66825;51.880;-0.518;2023-07-13T11:25:43;2.90;;;1.33;;
39434;SDS011;66825;51.880;-0.518;2023-07-13T11:38:28;2.92;;;1.20;;
39434;SDS011;66825;51.880;-0.518;2023-07-13T11:41:10;2.10;;;1.10;;
39434;SDS011;66825;51.880;-0.518;2023-07-13T11:43:40;1.75;;;0.80;;
39434;SDS011;66825;51.880;-0.518;2023-07-13T11:46:13;4.18;;;1.20;;
39434;SDS011;66825;51.880;-0.518;2023-07-13T11:48:45;2.72;;;1.10;;
39434;SDS011;66825;51.880;-0.518;2023-07-13T11:51:34;4.57;;;1.30;;
39434;SDS011;66825;51.880;-0.518;2023-07-13T11:54:05;1.77;;;1.00;;
39434;SDS011;66825;51.880;-0.518;2023-07-13T11:56:38;1.33;;;0.75;;
39434;SDS011;66825;51.880;-0.518;2023-07-13T11:59:05;2.92;;;1.27;;
39434;SDS011;66825;51.880;-0.518;2023-07-13T12:01:33;5.03;;;1.30;;
39434;SDS011;66825;51.880;-0.518;2023-07-13T12:04:06;2.42;;;1.20;;
39434;SDS011;66825;51.880;-0.518;2023-07-13T12:06:43;2.35;;;1.10;;
39434;SDS011;66825;51.880;-0.518;2023-07-13T12:09:12;2.00;;;1.20;;
39434;SDS011;66825;51.880;-0.518;2023-07-13T12:11:42;1.52;;;1.02;;
39434;SDS011;66825;51.880;-0.518;2023-07-13T12:14:14;1.83;;;0.98;;
39434;SDS011;66825;51.880;-0.518;2023-07-13T12:16:41;2.67;;;1.02;;
39434;SDS011;66825;51.880;-0.518;2023-07-13T12:19:13;2.20;;;0.90;;
39434;SDS011;66825;51.880;-0.518;2023-07-13T12:21:44;3.35;;;1.10;;
39434;SDS011;66825;51.880;-0.518;2023-07-13T12:24:16;2.67;;;1.30;;
39434;SDS011;66825;51.880;-0.518;2023-07-13T12:26:43;1.85;;;1.20;;
39434;SDS011;66825;51.880;-0.518;2023-07-13T12:29:15;4.00;;;1.40;;
39434;SDS011;66825;51.880;-0.518;2023-07-13T12:31:46;1.83;;;1.40;;
39434;SDS011;66825;51.880;-0.518;2023-07-13T12:34:14;4.55;;;1.70;;
39434;SDS011;66825;51.880;-0.518;2023-07-13T12:36:49;4.10;;;1.50;;
39434;SDS011;66825;51.880;-0.518;2023-07-13T12:39:20;5.03;;;1.75;;
39434;SDS011;66825;51.880;-0.518;2023-07-13T12:41:49;3.10;;;1.50;;
39434;SDS011;66825;51.880;-0.518;2023-07-13T12:44:17;2.45;;;1.70;;
39434;SDS011;66825;51.880;-0.518;2023-07-13T12:46:53;2.55;;;1.50;;
39434;SDS011;66825;51.880;-0.518;2023-07-13T12:49:23;3.03;;;1.90;;
39434;SDS011;66825;51.880;-0.518;2023-07-13T12:51:55;4.63;;;1.90;;
39434;SDS011;66825;51.880;-0.518;2023-07-13T12:54:22;2.70;;;1.90;;
39434;SDS011;66825;51.880;-0.518;2023-07-13T12:56:49;3.00;;;1.70;;
39434;SDS011;66825;51.880;-0.518;2023-07-13T12:59:18;2.97;;;1.60;;
39434;SDS011;66825;51.880;-0.518;2023-07-13T13:01:46;3.30;;;1.73;;
39434;SDS011;66825;51.880;-0.518;2023-07-13T13:04:18;3.92;;;1.92;;
39434;SDS011;66825;51.880;-0.518;2023-07-13T13:06:47;2.85;;;1.60;;
39434;SDS011;66825;51.880;-0.518;2023-07-13T13:09:14;4.45;;;1.67;;
39434;SDS011;66825;51.880;-0.518;2023-07-13T13:11:41;6.97;;;2.30;;
39434;SDS011;66825;51.880;-0.518;2023-07-13T13:14:07;5.50;;;1.90;;
39434;SDS011;66825;51.880;-0.518;2023-07-13T13:16:52;7.78;;;2.35;;
39434;SDS011;66825;51.880;-0.518;2023-07-13T13:19:19;6.65;;;2.90;;
39434;SDS011;66825;51.880;-0.518;2023-07-13T13:21:48;7.33;;;2.50;;
39434;SDS011;66825;51.880;-0.518;2023-07-13T13:24:22;5.53;;;2.10;;
39434;SDS011;66825;51.880;-0.518;2023-07-13T13:26:52;4.75;;;1.80;;
39434;SDS011;66825;51.880;-0.518;2023-07-13T13:29:19;3.53;;;1.60;;
39434;SDS011;66825;51.880;-0.518;2023-07-13T13:34:16;3.15;;;1.48;;
39434;SDS011;66825;51.880;-0.518;2023-07-13T13:36:44;2.83;;;1.40;;
39434;SDS011;66825;51.880;-0.518;2023-07-13T13:39:25;1.95;;;1.27;;
39434;SDS011;66825;51.880;-0.518;2023-07-13T13:41:56;2.75;;;1.67;;
39434;SDS011;66825;51.880;-0.518;2023-07-13T13:44:22;1.60;;;1.13;;
39434;SDS011;66825;51.880;-0.518;2023-07-13T13:46:49;1.35;;;1.20;;
39434;SDS011;66825;51.880;-0.518;2023-07-13T13:49:26;2.95;;;1.40;;
39434;SDS011;66825;51.880;-0.518;2023-07-13T13:51:53;3.22;;;1.30;;
39434;SDS011;66825;51.880;-0.518;2023-07-13T13:54:20;1.27;;;1.10;;
39434;SDS011;66825;51.880;-0.518;2023-07-13T13:56:47;2.05;;;1.40;;
39434;SDS011;66825;51.880;-0.518;2023-07-13T13:59:14;2.22;;;1.35;;
39434;SDS011;66825;51.880;-0.518;2023-07-13T14:01:40;2.40;;;1.20;;
39434;SDS011;66825;51.880;-0.518;2023-07-13T14:04:08;2.45;;;1.20;;
39434;SDS011;66825;51.880;-0.518;2023-07-13T14:06:39;1.73;;;1.23;;
39434;SDS011;66825;51.880;-0.518;2023-07-13T14:09:08;1.33;;;1.02;;
39434;SDS011;66825;51.880;-0.518;2023-07-13T14:11:36;3.08;;;1.02;;
39434;SDS011;66825;51.880;-0.518;2023-07-13T14:14:02;4.68;;;1.30;;
39434;SDS011;66825;51.880;-0.518;2023-07-13T14:16:30;2.72;;;1.17;;
39434;SDS011;66825;51.880;-0.518;2023-07-13T14:18:57;1.50;;;1.00;;
39434;SDS011;66825;51.880;-0.518;2023-07-13T14:21:25;1.77;;;0.98;;
39434;SDS011;66825;51.880;-0.518;2023-07-13T14:23:52;1.90;;;0.90;;
39434;SDS011;66825;51.880;-0.518;2023-07-13T14:26:18;1.50;;;0.90;;
39434;SDS011;66825;51.880;-0.518;2023-07-13T14:28:47;1.77;;;0.85;;
39434;SDS011;66825;51.880;-0.518;2023-07-13T14:31:15;1.77;;;0.95;;
39434;SDS011;66825;51.880;-0.518;2023-07-13T14:33:41;1.63;;;0.93;;
39434;SDS011;66825;51.880;-0.518;2023-07-13T14:36:15;2.28;;;1.10;;
39434;SDS011;66825;51.880;-0.518;2023-07-13T14:38:46;2.75;;;0.82;;
39434;SDS011;66825;51.880;-0.518;2023-07-13T14:41:12;1.48;;;0.95;;
39434;SDS011;66825;51.880;-0.518;2023-07-13T14:43:37;4.68;;;1.13;;
39434;SDS011;66825;51.880;-0.518;2023-07-13T14:46:03;4.03;;;1.20;;
39434;SDS011;66825;51.880;-0.518;2023-07-13T14:48:29;1.95;;;0.93;;
39434;SDS011;66825;51.880;-0.518;2023-07-13T14:50:57;1.95;;;0.80;;
39434;SDS011;66825;51.880;-0.518;2023-07-13T14:53:25;1.35;;;1.00;;
39434;SDS011;66825;51.880;-0.518;2023-07-13T14:55:54;1.13;;;0.70;;
39434;SDS011;66825;51.880;-0.518;2023-07-13T14:58:20;4.05;;;1.20;;
39434;SDS011;66825;51.880;-0.518;2023-07-13T15:00:46;2.85;;;1.10;;
39434;SDS011;66825;51.880;-0.518;2023-07-13T15:03:16;3.33;;;1.08;;
39434;SDS011;66825;51.880;-0.518;2023-07-13T15:05:46;2.38;;;1.20;;
39434;SDS011;66825;51.880;-0.518;2023-07-13T15:08:12;1.88;;;0.82;;
39434;SDS011;66825;51.880;-0.518;2023-07-13T15:10:44;1.67;;;1.02;;
39434;SDS011;66825;51.880;-0.518;2023-07-13T15:13:17;4.07;;;1.40;;
39434;SDS011;66825;51.880;-0.518;2023-07-13T15:15:45;1.88;;;1.13;;
39434;SDS011;66825;51.880;-0.518;2023-07-13T15:18:13;3.42;;;1.02;;